sensor_id;sensor_type;location;lat;lon;timestamp;P1;durP1;ratioP1;P2;durP2;ratioP2
17991;SDS011;9121;50.926;5.340;2023-04-06T00:00:13;37.60;;;17.93;;
17991;SDS011;9121;50.926;5.340;2023-04-06T00:02:41;34.63;;;18.03;;
17991;SDS011;9121;50.926;5.340;2023-04-06T00:05:09;42.87;;;19.10;;
17991;SDS011;9121;50.926;5.340;2023-04-06T00:07:36;42.57;;;19.00;;
17991;SDS011;9121;50.926;5.340;2023-04-06T00:10:04;40.87;;;19.97;;
17991;SDS011;9121;50.926;5.340;2023-04-06T00:12:31;41.33;;;19.50;;
17991;SDS011;9121;50.926;5.340;2023-04-06T00:14:59;42.63;;;19.17;;
17991;SDS011;9121;50.926;5.340;2023-04-06T00:17:26;38.27;;;19.33;;
17991;SDS011;9121;50.926;5.340;2023-04-06T00:19:53;40.73;;;18.33;;
17991;SDS011;9121;50.926;5.340;2023-04-06T00:22:21;42.20;;;19.07;;
17991;SDS011;9121;50.926;5.340;2023-04-06T00:24:49;42.90;;;19.20;;
17991;SDS011;9121;50.926;5.340;2023-04-06T00:27:15;37.00;;;19.03;;
17991;SDS011;9121;50.926;5.340;2023-04-06T00:29:43;35.97;;;18.77;;
17991;SDS011;9121;50.926;5.340;2023-04-06T00:32:10;34.90;;;18.07;;
17991;SDS011;9121;50.926;5.340;2023-04-06T00:34:37;42.43;;;19.33;;
17991;SDS011;9121;50.926;5.340;2023-04-06T00:37:04;34.57;;;18.53;;
17991;SDS011;9121;50.926;5.340;2023-04-06T00:39:32;36.83;;;18.27;;
17991;SDS011;9121;50.926;5.340;2023-04-06T00:42:00;41.10;;;18.83;;
17991;SDS011;9121;50.926;5.340;2023-04-06T00:44:33;39.00;;;19.30;;
17991;SDS011;9121;50.926;5.340;2023-04-06T00:47:00;38.47;;;19.37;;
17991;SDS011;9121;50.926;5.340;2023-04-06T00:49:27;40.30;;;18.50;;
17991;SDS011;9121;50.926;5.340;2023-04-06T00:51:54;39.53;;;19.67;;
17991;SDS011;9121;50.926;5.340;2023-04-06T00:54:21;36.80;;;17.87;;
17991;SDS011;9121;50.926;5.340;2023-04-06T00:56:50;37.63;;;19.30;;
17991;SDS011;9121;50.926;5.340;2023-04-06T00:59:17;41.33;;;19.47;;
17991;SDS011;9121;50.926;5.340;2023-04-06T01:01:44;42.40;;;18.73;;
17991;SDS011;9121;50.926;5.340;2023-04-06T01:04:11;37.87;;;18.47;;
17991;SDS011;9121;50.926;5.340;2023-04-06T01:06:38;40.50;;;19.60;;
17991;SDS011;9121;50.926;5.340;2023-04-06T01:09:05;37.03;;;18.67;;
17991;SDS011;9121;50.926;5.340;2023-04-06T01:11:32;42.00;;;19.07;;
17991;SDS011;9121;50.926;5.340;2023-04-06T01:14:01;38.77;;;19.17;;
17991;SDS011;9121;50.926;5.340;2023-04-06T01:16:28;40.33;;;18.70;;
17991;SDS011;9121;50.926;5.340;2023-04-06T01:18:56;43.00;;;20.37;;
17991;SDS011;9121;50.926;5.340;2023-04-06T01:21:22;33.47;;;17.93;;
17991;SDS011;9121;50.926;5.340;2023-04-06T01:23:51;39.17;;;18.50;;
17991;SDS011;9121;50.926;5.340;2023-04-06T01:26:18;41.63;;;19.13;;
17991;SDS011;9121;50.926;5.340;2023-04-06T01:28:45;39.63;;;18.50;;
17991;SDS011;9121;50.926;5.340;2023-04-06T01:31:12;40.60;;;19.27;;
17991;SDS011;9121;50.926;5.340;2023-04-06T01:33:39;39.83;;;19.37;;
17991;SDS011;9121;50.926;5.340;2023-04-06T01:36:07;44.03;;;18.97;;
17991;SDS011;9121;50.926;5.340;2023-04-06T01:38:34;42.77;;;18.93;;
17991;SDS011;9121;50.926;5.340;2023-04-06T01:41:02;37.60;;;18.20;;
17991;SDS011;9121;50.926;5.340;2023-04-06T01:43:29;35.50;;;18.23;;
17991;SDS011;9121;50.926;5.340;2023-04-06T01:45:56;39.07;;;18.77;;
17991;SDS011;9121;50.926;5.340;2023-04-06T01:48:23;32.17;;;17.20;;
17991;SDS011;9121;50.926;5.340;2023-04-06T01:50:50;40.90;;;18.40;;
17991;SDS011;9121;50.926;5.340;2023-04-06T01:53:17;34.17;;;17.17;;
17991;SDS011;9121;50.926;5.340;2023-04-06T01:55:44;35.30;;;17.90;;
17991;SDS011;9121;50.926;5.340;2023-04-06T01:58:13;35.47;;;18.03;;
17991;SDS011;9121;50.926;5.340;2023-04-06T02:00:40;44.63;;;19.47;;
17991;SDS011;9121;50.926;5.340;2023-04-06T02:03:07;38.50;;;18.27;;
17991;SDS011;9121;50.926;5.340;2023-04-06T02:05:34;37.00;;;18.43;;
17991;SDS011;9121;50.926;5.340;2023-04-06T02:08:03;37.17;;;18.20;;
17991;SDS011;9121;50.926;5.340;2023-04-06T02:10:30;36.70;;;17.77;;
17991;SDS011;9121;50.926;5.340;2023-04-06T02:12:57;34.43;;;17.67;;
17991;SDS011;9121;50.926;5.340;2023-04-06T02:15:25;33.93;;;17.53;;
17991;SDS011;9121;50.926;5.340;2023-04-06T02:17:53;34.90;;;17.67;;
17991;SDS011;9121;50.926;5.340;2023-04-06T02:20:20;38.30;;;18.43;;
17991;SDS011;9121;50.926;5.340;2023-04-06T02:22:47;40.53;;;18.10;;
17991;SDS011;9121;50.926;5.340;2023-04-06T02:25:14;37.40;;;18.70;;
17991;SDS011;9121;50.926;5.340;2023-04-06T02:27:42;35.37;;;17.33;;
17991;SDS011;9121;50.926;5.340;2023-04-06T02:30:09;40.47;;;18.57;;
17991;SDS011;9121;50.926;5.340;2023-04-06T02:32:38;38.50;;;18.27;;
17991;SDS011;9121;50.926;5.340;2023-04-06T02:35:05;34.13;;;17.73;;
17991;SDS011;9121;50.926;5.340;2023-04-06T02:37:32;37.93;;;18.43;;
17991;SDS011;9121;50.926;5.340;2023-04-06T02:39:59;37.67;;;18.33;;
17991;SDS011;9121;50.926;5.340;2023-04-06T02:42:26;35.60;;;16.60;;
17991;SDS011;9121;50.926;5.340;2023-04-06T02:44:53;35.27;;;18.07;;
17991;SDS011;9121;50.926;5.340;2023-04-06T02:47:20;37.37;;;17.87;;
17991;SDS011;9121;50.926;5.340;2023-04-06T02:49:48;35.37;;;17.30;;
17991;SDS011;9121;50.926;5.340;2023-04-06T02:52:16;31.20;;;16.57;;
17991;SDS011;9121;50.926;5.340;2023-04-06T02:54:43;34.00;;;17.13;;
17991;SDS011;9121;50.926;5.340;2023-04-06T02:57:10;33.00;;;17.27;;
17991;SDS011;9121;50.926;5.340;2023-04-06T02:59:37;34.37;;;17.43;;
17991;SDS011;9121;50.926;5.340;2023-04-06T03:02:04;34.50;;;17.30;;
17991;SDS011;9121;50.926;5.340;2023-04-06T03:04:31;37.83;;;18.87;;
17991;SDS011;9121;50.926;5.340;2023-04-06T03:06:59;36.00;;;16.77;;
17991;SDS011;9121;50.926;5.340;2023-04-06T03:09:26;35.73;;;17.03;;
17991;SDS011;9121;50.926;5.340;2023-04-06T03:11:53;41.30;;;17.70;;
17991;SDS011;9121;50.926;5.340;2023-04-06T03:14:20;35.50;;;16.77;;
17991;SDS011;9121;50.926;5.340;2023-04-06T03:16:47;35.47;;;17.37;;
17991;SDS011;9121;50.926;5.340;2023-04-06T03:19:15;36.57;;;17.37;;
17991;SDS011;9121;50.926;5.340;2023-04-06T03:21:42;36.57;;;17.03;;
17991;SDS011;9121;50.926;5.340;2023-04-06T03:24:10;34.93;;;16.60;;
17991;SDS011;9121;50.926;5.340;2023-04-06T03:26:37;32.63;;;15.87;;
17991;SDS011;9121;50.926;5.340;2023-04-06T03:29:04;35.20;;;17.20;;
17991;SDS011;9121;50.926;5.340;2023-04-06T03:31:31;34.97;;;16.63;;
17991;SDS011;9121;50.926;5.340;2023-04-06T03:33:58;33.17;;;17.03;;
17991;SDS011;9121;50.926;5.340;2023-04-06T03:36:25;34.80;;;17.20;;
17991;SDS011;9121;50.926;5.340;2023-04-06T03:38:52;30.57;;;16.00;;
17991;SDS011;9121;50.926;5.340;2023-04-06T03:41:21;31.83;;;16.30;;
17991;SDS011;9121;50.926;5.340;2023-04-06T03:43:48;36.07;;;18.00;;
17991;SDS011;9121;50.926;5.340;2023-04-06T03:46:15;34.50;;;16.70;;
17991;SDS011;9121;50.926;5.340;2023-04-06T03:48:42;34.37;;;17.27;;
17991;SDS011;9121;50.926;5.340;2023-04-06T03:51:09;32.37;;;16.67;;
17991;SDS011;9121;50.926;5.340;2023-04-06T03:53:36;36.53;;;16.70;;
17991;SDS011;9121;50.926;5.340;2023-04-06T03:56:04;29.93;;;15.10;;
17991;SDS011;9121;50.926;5.340;2023-04-06T03:58:32;30.80;;;15.13;;
17991;SDS011;9121;50.926;5.340;2023-04-06T04:01:00;31.10;;;15.13;;
17991;SDS011;9121;50.926;5.340;2023-04-06T04:03:26;32.30;;;15.53;;
17991;SDS011;9121;50.926;5.340;2023-04-06T04:05:54;32.20;;;15.83;;
17991;SDS011;9121;50.926;5.340;2023-04-06T04:08:21;30.10;;;16.00;;
17991;SDS011;9121;50.926;5.340;2023-04-06T04:10:48;35.10;;;16.87;;
17991;SDS011;9121;50.926;5.340;2023-04-06T04:13:15;31.47;;;15.30;;
17991;SDS011;9121;50.926;5.340;2023-04-06T04:15:43;33.27;;;14.93;;
17991;SDS011;9121;50.926;5.340;2023-04-06T04:18:12;35.67;;;16.60;;
17991;SDS011;9121;50.926;5.340;2023-04-06T04:20:39;27.87;;;15.43;;
17991;SDS011;9121;50.926;5.340;2023-04-06T04:23:06;29.13;;;14.07;;
17991;SDS011;9121;50.926;5.340;2023-04-06T04:25:33;32.57;;;14.97;;
17991;SDS011;9121;50.926;5.340;2023-04-06T04:28:00;28.13;;;14.23;;
17991;SDS011;9121;50.926;5.340;2023-04-06T04:30:27;33.20;;;15.03;;
17991;SDS011;9121;50.926;5.340;2023-04-06T04:32:55;31.93;;;14.90;;
17991;SDS011;9121;50.926;5.340;2023-04-06T04:35:22;26.07;;;14.20;;
17991;SDS011;9121;50.926;5.340;2023-04-06T04:37:49;31.23;;;14.53;;
17991;SDS011;9121;50.926;5.340;2023-04-06T04:40:16;30.83;;;14.43;;
17991;SDS011;9121;50.926;5.340;2023-04-06T04:42:43;34.67;;;14.80;;
17991;SDS011;9121;50.926;5.340;2023-04-06T04:45:11;35.17;;;15.53;;
17991;SDS011;9121;50.926;5.340;2023-04-06T04:47:38;27.40;;;14.17;;
17991;SDS011;9121;50.926;5.340;2023-04-06T04:50:07;95.83;;;16.73;;
17991;SDS011;9121;50.926;5.340;2023-04-06T04:52:34;66.37;;;15.90;;
17991;SDS011;9121;50.926;5.340;2023-04-06T04:55:01;27.43;;;14.87;;
17991;SDS011;9121;50.926;5.340;2023-04-06T04:57:29;36.47;;;14.60;;
17991;SDS011;9121;50.926;5.340;2023-04-06T04:59:56;33.33;;;16.20;;
17991;SDS011;9121;50.926;5.340;2023-04-06T05:02:23;37.40;;;15.53;;
17991;SDS011;9121;50.926;5.340;2023-04-06T05:04:50;27.23;;;14.03;;
17991;SDS011;9121;50.926;5.340;2023-04-06T05:07:18;29.60;;;13.67;;
17991;SDS011;9121;50.926;5.340;2023-04-06T05:09:46;31.73;;;14.20;;
17991;SDS011;9121;50.926;5.340;2023-04-06T05:12:13;67.37;;;15.77;;
17991;SDS011;9121;50.926;5.340;2023-04-06T05:14:40;42.07;;;16.40;;
17991;SDS011;9121;50.926;5.340;2023-04-06T05:17:07;37.07;;;15.67;;
17991;SDS011;9121;50.926;5.340;2023-04-06T05:19:35;34.10;;;14.20;;
17991;SDS011;9121;50.926;5.340;2023-04-06T05:22:02;40.53;;;14.33;;
17991;SDS011;9121;50.926;5.340;2023-04-06T05:24:30;38.33;;;14.80;;
17991;SDS011;9121;50.926;5.340;2023-04-06T05:26:57;40.33;;;15.43;;
17991;SDS011;9121;50.926;5.340;2023-04-06T05:29:25;31.20;;;13.83;;
17991;SDS011;9121;50.926;5.340;2023-04-06T05:31:52;30.20;;;14.70;;
17991;SDS011;9121;50.926;5.340;2023-04-06T05:34:19;35.50;;;14.20;;
17991;SDS011;9121;50.926;5.340;2023-04-06T05:36:46;35.83;;;15.53;;
17991;SDS011;9121;50.926;5.340;2023-04-06T05:39:13;30.47;;;13.97;;
17991;SDS011;9121;50.926;5.340;2023-04-06T05:41:42;28.90;;;13.67;;
17991;SDS011;9121;50.926;5.340;2023-04-06T05:44:08;34.33;;;15.43;;
17991;SDS011;9121;50.926;5.340;2023-04-06T05:46:36;29.13;;;14.27;;
17991;SDS011;9121;50.926;5.340;2023-04-06T05:49:02;39.57;;;16.17;;
17991;SDS011;9121;50.926;5.340;2023-04-06T05:51:29;66.03;;;18.67;;
17991;SDS011;9121;50.926;5.340;2023-04-06T05:53:56;36.30;;;14.63;;
17991;SDS011;9121;50.926;5.340;2023-04-06T05:56:24;29.87;;;14.33;;
17991;SDS011;9121;50.926;5.340;2023-04-06T05:58:52;30.30;;;14.27;;
17991;SDS011;9121;50.926;5.340;2023-04-06T06:01:19;27.17;;;13.60;;
17991;SDS011;9121;50.926;5.340;2023-04-06T06:03:46;33.70;;;14.23;;
17991;SDS011;9121;50.926;5.340;2023-04-06T06:06:13;33.73;;;13.60;;
17991;SDS011;9121;50.926;5.340;2023-04-06T06:08:40;30.80;;;14.60;;
17991;SDS011;9121;50.926;5.340;2023-04-06T06:11:07;32.03;;;14.93;;
17991;SDS011;9121;50.926;5.340;2023-04-06T06:13:34;28.63;;;14.03;;
17991;SDS011;9121;50.926;5.340;2023-04-06T06:16:03;28.27;;;13.80;;
17991;SDS011;9121;50.926;5.340;2023-04-06T06:18:30;30.93;;;14.10;;
17991;SDS011;9121;50.926;5.340;2023-04-06T06:20:57;33.80;;;14.77;;
17991;SDS011;9121;50.926;5.340;2023-04-06T06:23:25;27.67;;;14.63;;
17991;SDS011;9121;50.926;5.340;2023-04-06T06:25:52;35.57;;;14.50;;
17991;SDS011;9121;50.926;5.340;2023-04-06T06:28:19;27.73;;;13.73;;
17991;SDS011;9121;50.926;5.340;2023-04-06T06:30:46;31.10;;;13.97;;
17991;SDS011;9121;50.926;5.340;2023-04-06T06:33:15;27.07;;;14.00;;
17991;SDS011;9121;50.926;5.340;2023-04-06T06:35:42;26.23;;;12.90;;
17991;SDS011;9121;50.926;5.340;2023-04-06T06:38:09;50.73;;;16.90;;
17991;SDS011;9121;50.926;5.340;2023-04-06T06:40:36;103.53;;;21.43;;
17991;SDS011;9121;50.926;5.340;2023-04-06T06:43:03;34.40;;;14.07;;
17991;SDS011;9121;50.926;5.340;2023-04-06T06:45:30;46.23;;;15.53;;
17991;SDS011;9121;50.926;5.340;2023-04-06T06:47:57;44.30;;;14.43;;
17991;SDS011;9121;50.926;5.340;2023-04-06T06:50:25;27.93;;;13.47;;
17991;SDS011;9121;50.926;5.340;2023-04-06T06:52:53;42.73;;;14.80;;
17991;SDS011;9121;50.926;5.340;2023-04-06T06:55:20;31.60;;;12.87;;
17991;SDS011;9121;50.926;5.340;2023-04-06T06:57:46;27.80;;;12.80;;
17991;SDS011;9121;50.926;5.340;2023-04-06T07:00:14;42.43;;;19.93;;
17991;SDS011;9121;50.926;5.340;2023-04-06T07:02:41;30.40;;;13.80;;
17991;SDS011;9121;50.926;5.340;2023-04-06T07:05:08;29.00;;;13.07;;
17991;SDS011;9121;50.926;5.340;2023-04-06T07:07:37;26.70;;;12.23;;
17991;SDS011;9121;50.926;5.340;2023-04-06T07:10:04;27.23;;;12.43;;
17991;SDS011;9121;50.926;5.340;2023-04-06T07:12:32;28.13;;;13.13;;
17991;SDS011;9121;50.926;5.340;2023-04-06T07:14:58;25.30;;;11.90;;
17991;SDS011;9121;50.926;5.340;2023-04-06T07:17:25;28.07;;;12.33;;
17991;SDS011;9121;50.926;5.340;2023-04-06T07:19:53;24.47;;;12.17;;
17991;SDS011;9121;50.926;5.340;2023-04-06T07:22:20;35.17;;;15.48;;
17991;SDS011;9121;50.926;5.340;2023-04-06T07:24:48;28.17;;;13.10;;
17991;SDS011;9121;50.926;5.340;2023-04-06T07:27:15;30.73;;;12.73;;
17991;SDS011;9121;50.926;5.340;2023-04-06T07:29:43;29.13;;;13.20;;
17991;SDS011;9121;50.926;5.340;2023-04-06T07:32:10;27.33;;;12.17;;
17991;SDS011;9121;50.926;5.340;2023-04-06T07:34:37;34.53;;;12.77;;
17991;SDS011;9121;50.926;5.340;2023-04-06T07:37:04;38.37;;;12.83;;
17991;SDS011;9121;50.926;5.340;2023-04-06T07:39:31;47.13;;;13.20;;
17991;SDS011;9121;50.926;5.340;2023-04-06T07:42:00;23.87;;;11.23;;
17991;SDS011;9121;50.926;5.340;2023-04-06T07:44:26;33.47;;;12.40;;
17991;SDS011;9121;50.926;5.340;2023-04-06T07:46:53;27.13;;;11.77;;
17991;SDS011;9121;50.926;5.340;2023-04-06T07:49:21;33.27;;;11.87;;
17991;SDS011;9121;50.926;5.340;2023-04-06T07:51:48;29.93;;;12.17;;
17991;SDS011;9121;50.926;5.340;2023-04-06T07:54:15;28.40;;;12.20;;
17991;SDS011;9121;50.926;5.340;2023-04-06T07:56:42;30.33;;;12.20;;
17991;SDS011;9121;50.926;5.340;2023-04-06T07:59:10;29.30;;;11.87;;
17991;SDS011;9121;50.926;5.340;2023-04-06T08:01:38;40.83;;;13.50;;
17991;SDS011;9121;50.926;5.340;2023-04-06T08:04:05;26.27;;;12.63;;
17991;SDS011;9121;50.926;5.340;2023-04-06T08:06:32;35.83;;;13.87;;
17991;SDS011;9121;50.926;5.340;2023-04-06T08:09:01;38.30;;;13.10;;
17991;SDS011;9121;50.926;5.340;2023-04-06T08:11:28;36.43;;;12.77;;
17991;SDS011;9121;50.926;5.340;2023-04-06T08:13:56;42.97;;;12.37;;
17991;SDS011;9121;50.926;5.340;2023-04-06T08:16:24;29.77;;;12.37;;
17991;SDS011;9121;50.926;5.340;2023-04-06T08:18:51;30.30;;;12.27;;
17991;SDS011;9121;50.926;5.340;2023-04-06T08:21:18;39.70;;;12.90;;
17991;SDS011;9121;50.926;5.340;2023-04-06T08:23:45;25.03;;;12.03;;
17991;SDS011;9121;50.926;5.340;2023-04-06T08:26:12;30.83;;;11.00;;
17991;SDS011;9121;50.926;5.340;2023-04-06T08:28:39;30.40;;;11.87;;
17991;SDS011;9121;50.926;5.340;2023-04-06T08:31:06;21.83;;;11.03;;
17991;SDS011;9121;50.926;5.340;2023-04-06T08:33:35;27.23;;;12.53;;
17991;SDS011;9121;50.926;5.340;2023-04-06T08:36:08;24.30;;;11.03;;
17991;SDS011;9121;50.926;5.340;2023-04-06T08:38:36;29.53;;;12.40;;
17991;SDS011;9121;50.926;5.340;2023-04-06T08:41:09;25.07;;;12.03;;
17991;SDS011;9121;50.926;5.340;2023-04-06T08:43:39;25.60;;;11.23;;
17991;SDS011;9121;50.926;5.340;2023-04-06T08:46:09;36.07;;;13.30;;
17991;SDS011;9121;50.926;5.340;2023-04-06T08:48:40;36.67;;;13.67;;
17991;SDS011;9121;50.926;5.340;2023-04-06T08:51:08;21.20;;;11.43;;
17991;SDS011;9121;50.926;5.340;2023-04-06T08:53:36;27.50;;;12.00;;
17991;SDS011;9121;50.926;5.340;2023-04-06T08:56:03;30.27;;;11.53;;
17991;SDS011;9121;50.926;5.340;2023-04-06T08:58:32;30.33;;;11.53;;
17991;SDS011;9121;50.926;5.340;2023-04-06T09:01:02;26.47;;;10.50;;
17991;SDS011;9121;50.926;5.340;2023-04-06T09:03:33;20.17;;;10.40;;
17991;SDS011;9121;50.926;5.340;2023-04-06T09:06:05;25.93;;;9.90;;
17991;SDS011;9121;50.926;5.340;2023-04-06T09:08:33;20.00;;;9.47;;
17991;SDS011;9121;50.926;5.340;2023-04-06T09:11:00;17.67;;;9.43;;
17991;SDS011;9121;50.926;5.340;2023-04-06T09:13:27;20.97;;;8.87;;
17991;SDS011;9121;50.926;5.340;2023-04-06T09:16:01;21.00;;;9.30;;
17991;SDS011;9121;50.926;5.340;2023-04-06T09:18:29;22.87;;;9.77;;
17991;SDS011;9121;50.926;5.340;2023-04-06T09:20:58;20.10;;;9.40;;
17991;SDS011;9121;50.926;5.340;2023-04-06T09:23:27;24.80;;;10.00;;
17991;SDS011;9121;50.926;5.340;2023-04-06T09:28:43;21.60;;;10.37;;
17991;SDS011;9121;50.926;5.340;2023-04-06T09:31:11;21.97;;;9.13;;
17991;SDS011;9121;50.926;5.340;2023-04-06T09:33:40;21.83;;;9.68;;
17991;SDS011;9121;50.926;5.340;2023-04-06T09:36:08;15.43;;;8.30;;
17991;SDS011;9121;50.926;5.340;2023-04-06T09:38:50;21.77;;;9.00;;
17991;SDS011;9121;50.926;5.340;2023-04-06T09:41:20;23.73;;;9.27;;
17991;SDS011;9121;50.926;5.340;2023-04-06T09:43:49;18.50;;;8.13;;
17991;SDS011;9121;50.926;5.340;2023-04-06T09:46:17;16.53;;;8.60;;
17991;SDS011;9121;50.926;5.340;2023-04-06T09:48:47;23.13;;;9.30;;
17991;SDS011;9121;50.926;5.340;2023-04-06T09:51:16;17.17;;;8.47;;
17991;SDS011;9121;50.926;5.340;2023-04-06T09:53:46;17.47;;;8.60;;
17991;SDS011;9121;50.926;5.340;2023-04-06T09:56:17;19.23;;;9.17;;
17991;SDS011;9121;50.926;5.340;2023-04-06T09:58:49;19.53;;;8.77;;
17991;SDS011;9121;50.926;5.340;2023-04-06T10:01:21;18.57;;;9.50;;
17991;SDS011;9121;50.926;5.340;2023-04-06T10:03:54;17.33;;;8.43;;
17991;SDS011;9121;50.926;5.340;2023-04-06T10:06:28;14.93;;;8.63;;
17991;SDS011;9121;50.926;5.340;2023-04-06T10:09:02;18.67;;;9.87;;
17991;SDS011;9121;50.926;5.340;2023-04-06T10:11:30;17.77;;;9.67;;
17991;SDS011;9121;50.926;5.340;2023-04-06T10:13:58;20.37;;;9.80;;
17991;SDS011;9121;50.926;5.340;2023-04-06T10:16:25;16.03;;;8.93;;
17991;SDS011;9121;50.926;5.340;2023-04-06T10:18:54;19.00;;;9.60;;
17991;SDS011;9121;50.926;5.340;2023-04-06T10:21:24;16.23;;;8.53;;
17991;SDS011;9121;50.926;5.340;2023-04-06T10:23:54;16.97;;;9.33;;
17991;SDS011;9121;50.926;5.340;2023-04-06T10:26:26;21.27;;;9.30;;
17991;SDS011;9121;50.926;5.340;2023-04-06T10:28:54;14.73;;;8.27;;
17991;SDS011;9121;50.926;5.340;2023-04-06T10:31:24;15.50;;;8.90;;
17991;SDS011;9121;50.926;5.340;2023-04-06T10:33:55;18.30;;;9.20;;
17991;SDS011;9121;50.926;5.340;2023-04-06T10:36:23;77.40;;;11.23;;
17991;SDS011;9121;50.926;5.340;2023-04-06T10:38:55;89.73;;;12.87;;
17991;SDS011;9121;50.926;5.340;2023-04-06T10:41:24;31.27;;;9.73;;
17991;SDS011;9121;50.926;5.340;2023-04-06T10:44:00;21.00;;;9.43;;
17991;SDS011;9121;50.926;5.340;2023-04-06T10:46:29;21.80;;;9.47;;
17991;SDS011;9121;50.926;5.340;2023-04-06T10:48:56;59.43;;;10.27;;
17991;SDS011;9121;50.926;5.340;2023-04-06T10:51:25;15.80;;;8.47;;
17991;SDS011;9121;50.926;5.340;2023-04-06T10:53:54;22.50;;;8.93;;
17991;SDS011;9121;50.926;5.340;2023-04-06T10:56:23;19.30;;;9.20;;
17991;SDS011;9121;50.926;5.340;2023-04-06T10:58:54;14.90;;;8.13;;
17991;SDS011;9121;50.926;5.340;2023-04-06T11:01:22;19.30;;;8.57;;
17991;SDS011;9121;50.926;5.340;2023-04-06T11:03:50;15.07;;;8.17;;
17991;SDS011;9121;50.926;5.340;2023-04-06T11:06:19;16.90;;;8.60;;
17991;SDS011;9121;50.926;5.340;2023-04-06T11:08:47;16.30;;;7.87;;
17991;SDS011;9121;50.926;5.340;2023-04-06T11:11:16;15.03;;;8.33;;
17991;SDS011;9121;50.926;5.340;2023-04-06T11:13:44;18.43;;;8.70;;
17991;SDS011;9121;50.926;5.340;2023-04-06T11:16:14;15.93;;;7.37;;
17991;SDS011;9121;50.926;5.340;2023-04-06T11:18:53;14.97;;;7.97;;
17991;SDS011;9121;50.926;5.340;2023-04-06T11:21:31;14.03;;;7.90;;
17991;SDS011;9121;50.926;5.340;2023-04-06T11:24:06;22.07;;;9.07;;
17991;SDS011;9121;50.926;5.340;2023-04-06T11:26:40;14.10;;;7.83;;
17991;SDS011;9121;50.926;5.340;2023-04-06T11:29:09;13.73;;;7.80;;
17991;SDS011;9121;50.926;5.340;2023-04-06T11:31:39;17.10;;;8.57;;
17991;SDS011;9121;50.926;5.340;2023-04-06T11:34:13;20.13;;;8.47;;
17991;SDS011;9121;50.926;5.340;2023-04-06T11:36:43;14.13;;;7.93;;
17991;SDS011;9121;50.926;5.340;2023-04-06T11:39:13;13.73;;;7.73;;
17991;SDS011;9121;50.926;5.340;2023-04-06T11:41:47;16.67;;;7.73;;
17991;SDS011;9121;50.926;5.340;2023-04-06T11:44:14;15.70;;;8.27;;
17991;SDS011;9121;50.926;5.340;2023-04-06T11:46:42;19.20;;;9.03;;
17991;SDS011;9121;50.926;5.340;2023-04-06T11:49:18;14.53;;;7.33;;
17991;SDS011;9121;50.926;5.340;2023-04-06T11:51:45;16.53;;;8.67;;
17991;SDS011;9121;50.926;5.340;2023-04-06T11:54:12;20.67;;;9.43;;
17991;SDS011;9121;50.926;5.340;2023-04-06T11:56:39;14.33;;;7.90;;
17991;SDS011;9121;50.926;5.340;2023-04-06T11:59:06;13.73;;;7.67;;
17991;SDS011;9121;50.926;5.340;2023-04-06T12:01:33;18.63;;;8.83;;
17991;SDS011;9121;50.926;5.340;2023-04-06T12:04:02;15.57;;;7.90;;
17991;SDS011;9121;50.926;5.340;2023-04-06T12:06:30;15.47;;;7.80;;
17991;SDS011;9121;50.926;5.340;2023-04-06T12:08:57;15.97;;;7.30;;
17991;SDS011;9121;50.926;5.340;2023-04-06T12:11:24;13.13;;;6.93;;
17991;SDS011;9121;50.926;5.340;2023-04-06T12:13:51;16.03;;;7.57;;
17991;SDS011;9121;50.926;5.340;2023-04-06T12:16:18;15.30;;;7.87;;
17991;SDS011;9121;50.926;5.340;2023-04-06T12:18:45;14.87;;;7.67;;
17991;SDS011;9121;50.926;5.340;2023-04-06T12:21:13;15.87;;;8.17;;
17991;SDS011;9121;50.926;5.340;2023-04-06T12:23:40;12.67;;;7.40;;
17991;SDS011;9121;50.926;5.340;2023-04-06T12:26:07;14.53;;;7.00;;
17991;SDS011;9121;50.926;5.340;2023-04-06T12:28:34;14.50;;;8.30;;
17991;SDS011;9121;50.926;5.340;2023-04-06T12:31:01;15.30;;;8.57;;
17991;SDS011;9121;50.926;5.340;2023-04-06T12:33:28;14.40;;;7.90;;
17991;SDS011;9121;50.926;5.340;2023-04-06T12:35:55;12.77;;;6.87;;
17991;SDS011;9121;50.926;5.340;2023-04-06T12:38:23;15.70;;;7.77;;
17991;SDS011;9121;50.926;5.340;2023-04-06T12:40:51;14.60;;;7.07;;
17991;SDS011;9121;50.926;5.340;2023-04-06T12:43:18;13.43;;;7.77;;
17991;SDS011;9121;50.926;5.340;2023-04-06T12:45:45;11.00;;;7.40;;
17991;SDS011;9121;50.926;5.340;2023-04-06T12:48:12;15.53;;;7.60;;
17991;SDS011;9121;50.926;5.340;2023-04-06T12:50:39;12.67;;;7.77;;
17991;SDS011;9121;50.926;5.340;2023-04-06T12:53:06;16.83;;;8.23;;
17991;SDS011;9121;50.926;5.340;2023-04-06T12:55:34;14.47;;;8.10;;
17991;SDS011;9121;50.926;5.340;2023-04-06T12:58:01;14.63;;;7.27;;
17991;SDS011;9121;50.926;5.340;2023-04-06T13:00:28;12.73;;;7.87;;
17991;SDS011;9121;50.926;5.340;2023-04-06T13:02:55;16.63;;;8.77;;
17991;SDS011;9121;50.926;5.340;2023-04-06T13:05:22;24.73;;;9.50;;
17991;SDS011;9121;50.926;5.340;2023-04-06T13:07:49;16.77;;;8.50;;
17991;SDS011;9121;50.926;5.340;2023-04-06T13:10:16;15.57;;;9.37;;
17991;SDS011;9121;50.926;5.340;2023-04-06T13:12:45;18.03;;;8.90;;
17991;SDS011;9121;50.926;5.340;2023-04-06T13:15:12;20.87;;;8.70;;
17991;SDS011;9121;50.926;5.340;2023-04-06T13:17:39;12.93;;;7.60;;
17991;SDS011;9121;50.926;5.340;2023-04-06T13:20:06;15.67;;;8.70;;
17991;SDS011;9121;50.926;5.340;2023-04-06T13:22:34;12.43;;;7.83;;
17991;SDS011;9121;50.926;5.340;2023-04-06T13:25:01;13.87;;;8.20;;
17991;SDS011;9121;50.926;5.340;2023-04-06T13:27:28;13.43;;;8.03;;
17991;SDS011;9121;50.926;5.340;2023-04-06T13:30:00;15.03;;;8.03;;
17991;SDS011;9121;50.926;5.340;2023-04-06T13:32:27;12.33;;;7.73;;
17991;SDS011;9121;50.926;5.340;2023-04-06T13:34:55;13.73;;;8.33;;
17991;SDS011;9121;50.926;5.340;2023-04-06T13:37:22;19.03;;;9.43;;
17991;SDS011;9121;50.926;5.340;2023-04-06T13:39:49;18.33;;;8.43;;
17991;SDS011;9121;50.926;5.340;2023-04-06T13:42:16;11.87;;;7.63;;
17991;SDS011;9121;50.926;5.340;2023-04-06T13:44:43;15.77;;;7.47;;
17991;SDS011;9121;50.926;5.340;2023-04-06T13:47:13;12.30;;;7.70;;
17991;SDS011;9121;50.926;5.340;2023-04-06T13:49:40;11.77;;;7.13;;
17991;SDS011;9121;50.926;5.340;2023-04-06T13:52:07;24.27;;;9.20;;
17991;SDS011;9121;50.926;5.340;2023-04-06T13:54:35;14.90;;;8.13;;
17991;SDS011;9121;50.926;5.340;2023-04-06T13:57:02;15.43;;;7.97;;
17991;SDS011;9121;50.926;5.340;2023-04-06T13:59:33;13.37;;;7.57;;
17991;SDS011;9121;50.926;5.340;2023-04-06T14:02:01;17.00;;;8.23;;
17991;SDS011;9121;50.926;5.340;2023-04-06T14:04:29;14.30;;;7.60;;
17991;SDS011;9121;50.926;5.340;2023-04-06T14:06:56;13.37;;;7.60;;
17991;SDS011;9121;50.926;5.340;2023-04-06T14:09:23;14.43;;;8.10;;
17991;SDS011;9121;50.926;5.340;2023-04-06T14:11:50;14.10;;;7.23;;
17991;SDS011;9121;50.926;5.340;2023-04-06T14:14:18;17.33;;;7.83;;
17991;SDS011;9121;50.926;5.340;2023-04-06T14:16:45;10.93;;;7.13;;
17991;SDS011;9121;50.926;5.340;2023-04-06T14:19:14;12.53;;;7.00;;
17991;SDS011;9121;50.926;5.340;2023-04-06T14:21:43;12.97;;;7.60;;
17991;SDS011;9121;50.926;5.340;2023-04-06T14:24:11;15.23;;;8.33;;
17991;SDS011;9121;50.926;5.340;2023-04-06T14:26:39;12.63;;;7.60;;
17991;SDS011;9121;50.926;5.340;2023-04-06T14:29:06;14.77;;;7.70;;
17991;SDS011;9121;50.926;5.340;2023-04-06T14:31:34;12.80;;;7.97;;
17991;SDS011;9121;50.926;5.340;2023-04-06T14:34:02;13.73;;;7.43;;
17991;SDS011;9121;50.926;5.340;2023-04-06T14:36:30;13.43;;;8.67;;
17991;SDS011;9121;50.926;5.340;2023-04-06T14:39:02;12.23;;;8.00;;
17991;SDS011;9121;50.926;5.340;2023-04-06T14:41:30;17.67;;;9.33;;
17991;SDS011;9121;50.926;5.340;2023-04-06T14:43:58;13.93;;;8.73;;